sensor_id;sensor_type;location;lat;lon;timestamp;P1;durP1;ratioP1;P2;durP2;ratioP2
64653;SDS011;51065;48.884;12.598;2022-09-13T00:00:06;13.15;;;5.88;;
64653;SDS011;51065;48.884;12.598;2022-09-13T00:02:32;14.85;;;6.07;;
64653;SDS011;51065;48.884;12.598;2022-09-13T00:04:57;11.88;;;5.78;;
64653;SDS011;51065;48.884;12.598;2022-09-13T00:07:23;13.65;;;5.65;;
64653;SDS011;51065;48.884;12.598;2022-09-13T00:09:49;15.10;;;6.07;;
64653;SDS011;51065;48.884;12.598;2022-09-13T00:12:14;15.63;;;6.78;;
64653;SDS011;51065;48.884;12.598;2022-09-13T00:14:40;14.65;;;5.90;;
64653;SDS011;51065;48.884;12.598;2022-09-13T00:17:06;14.93;;;6.55;;
64653;SDS011;51065;48.884;12.598;2022-09-13T00:19:31;13.32;;;5.75;;
64653;SDS011;51065;48.884;12.598;2022-09-13T00:21:57;13.02;;;5.90;;
64653;SDS011;51065;48.884;12.598;2022-09-13T00:24:23;14.02;;;5.70;;
64653;SDS011;51065;48.884;12.598;2022-09-13T00:26:48;14.05;;;5.45;;
64653;SDS011;51065;48.884;12.598;2022-09-13T00:29:14;12.00;;;5.03;;
64653;SDS011;51065;48.884;12.598;2022-09-13T00:31:39;11.25;;;4.78;;
64653;SDS011;51065;48.884;12.598;2022-09-13T00:34:05;11.73;;;4.55;;
64653;SDS011;51065;48.884;12.598;2022-09-13T00:36:30;12.90;;;5.13;;
64653;SDS011;51065;48.884;12.598;2022-09-13T00:38:56;12.40;;;5.40;;
64653;SDS011;51065;48.884;12.598;2022-09-13T00:41:24;9.05;;;4.10;;
64653;SDS011;51065;48.884;12.598;2022-09-13T00:43:54;10.68;;;4.95;;
64653;SDS011;51065;48.884;12.598;2022-09-13T00:49:06;10.68;;;4.32;;
64653;SDS011;51065;48.884;12.598;2022-09-13T00:51:38;11.45;;;4.93;;
64653;SDS011;51065;48.884;12.598;2022-09-13T00:54:07;12.00;;;4.38;;
64653;SDS011;51065;48.884;12.598;2022-09-13T00:56:35;11.70;;;4.53;;
64653;SDS011;51065;48.884;12.598;2022-09-13T00:59:18;11.00;;;4.95;;
64653;SDS011;51065;48.884;12.598;2022-09-13T01:01:55;10.55;;;4.93;;
64653;SDS011;51065;48.884;12.598;2022-09-13T01:04:23;11.10;;;4.63;;
64653;SDS011;51065;48.884;12.598;2022-09-13T01:06:52;12.68;;;5.85;;
64653;SDS011;51065;48.884;12.598;2022-09-13T01:09:19;12.20;;;4.70;;
64653;SDS011;51065;48.884;12.598;2022-09-13T01:11:45;12.73;;;4.75;;
64653;SDS011;51065;48.884;12.598;2022-09-13T01:14:34;15.13;;;5.50;;
64653;SDS011;51065;48.884;12.598;2022-09-13T01:17:01;12.93;;;4.40;;
64653;SDS011;51065;48.884;12.598;2022-09-13T01:19:27;11.95;;;5.25;;
64653;SDS011;51065;48.884;12.598;2022-09-13T01:35:59;11.10;;;4.80;;
64653;SDS011;51065;48.884;12.598;2022-09-13T01:38:58;8.80;;;3.92;;
64653;SDS011;51065;48.884;12.598;2022-09-13T01:41:54;11.18;;;4.80;;
64653;SDS011;51065;48.884;12.598;2022-09-13T01:44:40;11.25;;;5.03;;
64653;SDS011;51065;48.884;12.598;2022-09-13T01:47:45;11.85;;;4.90;;
64653;SDS011;51065;48.884;12.598;2022-09-13T01:50:21;10.63;;;5.03;;
64653;SDS011;51065;48.884;12.598;2022-09-13T01:53:17;15.77;;;5.90;;
64653;SDS011;51065;48.884;12.598;2022-09-13T01:55:54;13.50;;;5.25;;
64653;SDS011;51065;48.884;12.598;2022-09-13T01:58:27;12.45;;;5.55;;
64653;SDS011;51065;48.884;12.598;2022-09-13T02:01:03;11.77;;;5.35;;
64653;SDS011;51065;48.884;12.598;2022-09-13T02:03:37;12.55;;;5.15;;
64653;SDS011;51065;48.884;12.598;2022-09-13T02:06:11;12.02;;;5.45;;
64653;SDS011;51065;48.884;12.598;2022-09-13T02:08:42;12.20;;;5.60;;
64653;SDS011;51065;48.884;12.598;2022-09-13T02:11:14;14.05;;;5.18;;
64653;SDS011;51065;48.884;12.598;2022-09-13T02:16:33;12.93;;;5.45;;
64653;SDS011;51065;48.884;12.598;2022-09-13T02:20:14;11.93;;;5.03;;
64653;SDS011;51065;48.884;12.598;2022-09-13T02:22:10;12.98;;;4.93;;
64653;SDS011;51065;48.884;12.598;2022-09-13T02:24:41;12.05;;;4.55;;
64653;SDS011;51065;48.884;12.598;2022-09-13T02:27:11;10.50;;;4.65;;
64653;SDS011;51065;48.884;12.598;2022-09-13T02:29:39;11.35;;;4.50;;
64653;SDS011;51065;48.884;12.598;2022-09-13T02:32:10;12.38;;;5.40;;
64653;SDS011;51065;48.884;12.598;2022-09-13T02:34:59;12.23;;;4.97;;
64653;SDS011;51065;48.884;12.598;2022-09-13T02:37:26;11.23;;;4.38;;
64653;SDS011;51065;48.884;12.598;2022-09-13T02:39:59;12.07;;;5.15;;
64653;SDS011;51065;48.884;12.598;2022-09-13T02:42:32;11.40;;;5.05;;
64653;SDS011;51065;48.884;12.598;2022-09-13T02:45:02;8.75;;;4.00;;
64653;SDS011;51065;48.884;12.598;2022-09-13T02:56:19;11.57;;;4.47;;
64653;SDS011;51065;48.884;12.598;2022-09-13T03:01:44;10.30;;;4.43;;
64653;SDS011;51065;48.884;12.598;2022-09-13T03:04:13;11.85;;;5.18;;
64653;SDS011;51065;48.884;12.598;2022-09-13T03:06:39;11.20;;;5.00;;
64653;SDS011;51065;48.884;12.598;2022-09-13T03:09:06;8.68;;;4.18;;
64653;SDS011;51065;48.884;12.598;2022-09-13T03:14:38;9.50;;;4.22;;
64653;SDS011;51065;48.884;12.598;2022-09-13T03:20:42;11.43;;;4.65;;
64653;SDS011;51065;48.884;12.598;2022-09-13T03:34:46;9.48;;;4.45;;
64653;SDS011;51065;48.884;12.598;2022-09-13T03:37:33;9.80;;;4.30;;
64653;SDS011;51065;48.884;12.598;2022-09-13T03:45:37;11.50;;;4.43;;
64653;SDS011;51065;48.884;12.598;2022-09-13T03:50:33;10.25;;;4.75;;
64653;SDS011;51065;48.884;12.598;2022-09-13T03:53:02;11.25;;;4.72;;
64653;SDS011;51065;48.884;12.598;2022-09-13T03:55:31;9.70;;;4.43;;
64653;SDS011;51065;48.884;12.598;2022-09-13T03:57:58;9.80;;;4.50;;
64653;SDS011;51065;48.884;12.598;2022-09-13T04:00:23;12.25;;;5.13;;
64653;SDS011;51065;48.884;12.598;2022-09-13T04:02:49;14.52;;;5.38;;
64653;SDS011;51065;48.884;12.598;2022-09-13T04:05:15;12.10;;;4.82;;
64653;SDS011;51065;48.884;12.598;2022-09-13T04:07:40;12.38;;;4.68;;
64653;SDS011;51065;48.884;12.598;2022-09-13T04:10:06;11.70;;;4.82;;
64653;SDS011;51065;48.884;12.598;2022-09-13T04:12:32;11.43;;;5.47;;
64653;SDS011;51065;48.884;12.598;2022-09-13T04:14:58;12.45;;;5.43;;
64653;SDS011;51065;48.884;12.598;2022-09-13T04:17:24;11.30;;;4.95;;
64653;SDS011;51065;48.884;12.598;2022-09-13T04:19:49;11.23;;;4.68;;
64653;SDS011;51065;48.884;12.598;2022-09-13T04:22:15;11.32;;;4.30;;
64653;SDS011;51065;48.884;12.598;2022-09-13T04:24:41;10.60;;;4.35;;
64653;SDS011;51065;48.884;12.598;2022-09-13T04:27:07;9.40;;;3.92;;
64653;SDS011;51065;48.884;12.598;2022-09-13T04:29:33;11.45;;;4.47;;
64653;SDS011;51065;48.884;12.598;2022-09-13T04:31:59;10.70;;;4.60;;
64653;SDS011;51065;48.884;12.598;2022-09-13T04:34:25;10.35;;;4.60;;
64653;SDS011;51065;48.884;12.598;2022-09-13T04:36:51;9.07;;;3.97;;
64653;SDS011;51065;48.884;12.598;2022-09-13T04:39:17;10.95;;;4.93;;
64653;SDS011;51065;48.884;12.598;2022-09-13T04:41:44;10.35;;;4.53;;
64653;SDS011;51065;48.884;12.598;2022-09-13T04:44:12;11.50;;;4.72;;
64653;SDS011;51065;48.884;12.598;2022-09-13T04:46:40;11.20;;;4.80;;
64653;SDS011;51065;48.884;12.598;2022-09-13T04:49:05;10.63;;;4.32;;
64653;SDS011;51065;48.884;12.598;2022-09-13T04:51:31;11.43;;;4.82;;
64653;SDS011;51065;48.884;12.598;2022-09-13T04:53:57;14.55;;;5.05;;
64653;SDS011;51065;48.884;12.598;2022-09-13T04:56:24;14.68;;;5.97;;
64653;SDS011;51065;48.884;12.598;2022-09-13T04:58:50;10.77;;;4.43;;
64653;SDS011;51065;48.884;12.598;2022-09-13T05:01:16;14.90;;;4.63;;
64653;SDS011;51065;48.884;12.598;2022-09-13T05:03:42;9.55;;;4.57;;
64653;SDS011;51065;48.884;12.598;2022-09-13T05:06:09;17.23;;;5.00;;
64653;SDS011;51065;48.884;12.598;2022-09-13T05:08:37;14.30;;;4.85;;
64653;SDS011;51065;48.884;12.598;2022-09-13T05:11:03;14.43;;;4.88;;
64653;SDS011;51065;48.884;12.598;2022-09-13T05:13:30;11.02;;;4.63;;
64653;SDS011;51065;48.884;12.598;2022-09-13T05:15:56;14.85;;;5.20;;
64653;SDS011;51065;48.884;12.598;2022-09-13T05:18:29;10.30;;;4.63;;
64653;SDS011;51065;48.884;12.598;2022-09-13T05:20:57;8.27;;;4.05;;
64653;SDS011;51065;48.884;12.598;2022-09-13T05:23:24;14.15;;;4.53;;
64653;SDS011;51065;48.884;12.598;2022-09-13T05:25:54;15.60;;;4.75;;
64653;SDS011;51065;48.884;12.598;2022-09-13T05:28:21;12.70;;;5.38;;
64653;SDS011;51065;48.884;12.598;2022-09-13T05:30:58;10.45;;;4.55;;
64653;SDS011;51065;48.884;12.598;2022-09-13T05:33:25;13.80;;;4.38;;
64653;SDS011;51065;48.884;12.598;2022-09-13T05:35:52;9.50;;;4.50;;
64653;SDS011;51065;48.884;12.598;2022-09-13T05:38:18;12.25;;;5.28;;
64653;SDS011;51065;48.884;12.598;2022-09-13T05:40:45;9.52;;;4.53;;
64653;SDS011;51065;48.884;12.598;2022-09-13T05:43:11;11.85;;;4.95;;
64653;SDS011;51065;48.884;12.598;2022-09-13T05:45:37;11.23;;;5.18;;
64653;SDS011;51065;48.884;12.598;2022-09-13T05:48:02;11.23;;;4.80;;
64653;SDS011;51065;48.884;12.598;2022-09-13T05:50:28;11.30;;;4.97;;
64653;SDS011;51065;48.884;12.598;2022-09-13T05:52:54;14.02;;;5.38;;
64653;SDS011;51065;48.884;12.598;2022-09-13T05:55:21;9.95;;;4.70;;
64653;SDS011;51065;48.884;12.598;2022-09-13T05:57:47;11.65;;;5.20;;
64653;SDS011;51065;48.884;12.598;2022-09-13T06:00:14;9.27;;;4.10;;
64653;SDS011;51065;48.884;12.598;2022-09-13T06:02:40;10.88;;;5.03;;
64653;SDS011;51065;48.884;12.598;2022-09-13T06:05:06;11.48;;;4.88;;
64653;SDS011;51065;48.884;12.598;2022-09-13T06:07:38;10.95;;;4.93;;
64653;SDS011;51065;48.884;12.598;2022-09-13T06:10:05;9.73;;;4.78;;
64653;SDS011;51065;48.884;12.598;2022-09-13T06:12:31;12.68;;;5.55;;
64653;SDS011;51065;48.884;12.598;2022-09-13T06:14:57;10.60;;;5.18;;
64653;SDS011;51065;48.884;12.598;2022-09-13T06:17:22;11.50;;;5.60;;
64653;SDS011;51065;48.884;12.598;2022-09-13T06:19:48;11.38;;;4.95;;
64653;SDS011;51065;48.884;12.598;2022-09-13T06:22:14;11.48;;;5.40;;
64653;SDS011;51065;48.884;12.598;2022-09-13T06:24:39;11.77;;;5.40;;
64653;SDS011;51065;48.884;12.598;2022-09-13T06:27:05;15.70;;;5.45;;
64653;SDS011;51065;48.884;12.598;2022-09-13T06:29:30;11.75;;;5.15;;
64653;SDS011;51065;48.884;12.598;2022-09-13T06:31:56;11.45;;;5.10;;
64653;SDS011;51065;48.884;12.598;2022-09-13T06:34:22;11.32;;;5.78;;
64653;SDS011;51065;48.884;12.598;2022-09-13T06:36:47;13.85;;;5.45;;
64653;SDS011;51065;48.884;12.598;2022-09-13T06:39:13;15.63;;;6.03;;
64653;SDS011;51065;48.884;12.598;2022-09-13T06:41:38;12.00;;;5.65;;
64653;SDS011;51065;48.884;12.598;2022-09-13T06:44:04;12.65;;;6.13;;
64653;SDS011;51065;48.884;12.598;2022-09-13T06:46:30;13.07;;;5.35;;
64653;SDS011;51065;48.884;12.598;2022-09-13T06:49:02;13.38;;;5.65;;
64653;SDS011;51065;48.884;12.598;2022-09-13T06:51:32;15.88;;;6.05;;
64653;SDS011;51065;48.884;12.598;2022-09-13T06:53:59;16.05;;;5.95;;
64653;SDS011;51065;48.884;12.598;2022-09-13T06:56:32;14.95;;;5.70;;
64653;SDS011;51065;48.884;12.598;2022-09-13T06:59:00;13.80;;;6.28;;
64653;SDS011;51065;48.884;12.598;2022-09-13T07:01:32;14.77;;;6.70;;
64653;SDS011;51065;48.884;12.598;2022-09-13T07:04:06;13.13;;;5.63;;
64653;SDS011;51065;48.884;12.598;2022-09-13T07:06:38;13.57;;;5.93;;
64653;SDS011;51065;48.884;12.598;2022-09-13T07:09:06;14.60;;;6.35;;
64653;SDS011;51065;48.884;12.598;2022-09-13T07:11:34;12.55;;;5.93;;
64653;SDS011;51065;48.884;12.598;2022-09-13T07:14:02;11.15;;;5.75;;
64653;SDS011;51065;48.884;12.598;2022-09-13T07:16:29;13.88;;;6.03;;
64653;SDS011;51065;48.884;12.598;2022-09-13T07:18:59;12.43;;;6.10;;
64653;SDS011;51065;48.884;12.598;2022-09-13T07:21:26;10.85;;;5.75;;
64653;SDS011;51065;48.884;12.598;2022-09-13T07:23:53;15.73;;;6.88;;
64653;SDS011;51065;48.884;12.598;2022-09-13T07:26:20;16.85;;;6.72;;
64653;SDS011;51065;48.884;12.598;2022-09-13T07:28:47;15.73;;;7.20;;
64653;SDS011;51065;48.884;12.598;2022-09-13T07:31:16;15.10;;;6.93;;
64653;SDS011;51065;48.884;12.598;2022-09-13T07:33:44;15.07;;;6.55;;
64653;SDS011;51065;48.884;12.598;2022-09-13T07:36:11;14.52;;;7.05;;
64653;SDS011;51065;48.884;12.598;2022-09-13T07:38:38;16.15;;;6.82;;
64653;SDS011;51065;48.884;12.598;2022-09-13T07:41:06;15.75;;;6.78;;
64653;SDS011;51065;48.884;12.598;2022-09-13T07:43:35;13.18;;;6.43;;
64653;SDS011;51065;48.884;12.598;2022-09-13T07:46:02;18.55;;;6.97;;
64653;SDS011;51065;48.884;12.598;2022-09-13T07:48:30;13.77;;;7.05;;
64653;SDS011;51065;48.884;12.598;2022-09-13T07:50:59;16.15;;;7.45;;
64653;SDS011;51065;48.884;12.598;2022-09-13T07:53:32;14.48;;;6.70;;
64653;SDS011;51065;48.884;12.598;2022-09-13T07:56:02;15.50;;;7.50;;
64653;SDS011;51065;48.884;12.598;2022-09-13T07:58:29;16.17;;;7.13;;
64653;SDS011;51065;48.884;12.598;2022-09-13T08:01:14;17.38;;;7.65;;
64653;SDS011;51065;48.884;12.598;2022-09-13T08:03:41;16.92;;;7.00;;
64653;SDS011;51065;48.884;12.598;2022-09-13T08:06:07;14.57;;;7.10;;
64653;SDS011;51065;48.884;12.598;2022-09-13T08:08:33;13.80;;;6.53;;
64653;SDS011;51065;48.884;12.598;2022-09-13T08:11:00;12.85;;;6.28;;
64653;SDS011;51065;48.884;12.598;2022-09-13T08:13:27;15.13;;;6.60;;
64653;SDS011;51065;48.884;12.598;2022-09-13T08:15:53;11.35;;;5.97;;
64653;SDS011;51065;48.884;12.598;2022-09-13T08:18:20;12.98;;;5.60;;
64653;SDS011;51065;48.884;12.598;2022-09-13T08:20:46;12.27;;;6.50;;
64653;SDS011;51065;48.884;12.598;2022-09-13T08:23:12;12.70;;;6.75;;
64653;SDS011;51065;48.884;12.598;2022-09-13T08:25:38;12.88;;;6.10;;
64653;SDS011;51065;48.884;12.598;2022-09-13T08:28:05;12.57;;;6.55;;
64653;SDS011;51065;48.884;12.598;2022-09-13T08:30:38;13.57;;;6.30;;
64653;SDS011;51065;48.884;12.598;2022-09-13T08:33:06;12.48;;;5.78;;
64653;SDS011;51065;48.884;12.598;2022-09-13T08:35:31;14.63;;;7.07;;
64653;SDS011;51065;48.884;12.598;2022-09-13T08:37:58;14.63;;;6.15;;
64653;SDS011;51065;48.884;12.598;2022-09-13T08:40:24;13.63;;;6.18;;
64653;SDS011;51065;48.884;12.598;2022-09-13T08:43:05;12.68;;;5.80;;
64653;SDS011;51065;48.884;12.598;2022-09-13T08:45:32;13.07;;;5.53;;
64653;SDS011;51065;48.884;12.598;2022-09-13T08:48:00;11.20;;;5.38;;
64653;SDS011;51065;48.884;12.598;2022-09-13T08:50:31;12.73;;;5.90;;
64653;SDS011;51065;48.884;12.598;2022-09-13T08:53:00;11.25;;;5.57;;
64653;SDS011;51065;48.884;12.598;2022-09-13T09:01:05;12.98;;;6.03;;
64653;SDS011;51065;48.884;12.598;2022-09-13T09:06:26;14.43;;;5.72;;
64653;SDS011;51065;48.884;12.598;2022-09-13T09:09:03;12.57;;;5.97;;
64653;SDS011;51065;48.884;12.598;2022-09-13T09:11:36;12.35;;;5.88;;
64653;SDS011;51065;48.884;12.598;2022-09-13T09:14:23;12.40;;;6.03;;
64653;SDS011;51065;48.884;12.598;2022-09-13T09:16:58;12.45;;;5.40;;
64653;SDS011;51065;48.884;12.598;2022-09-13T09:19:32;11.77;;;5.93;;
64653;SDS011;51065;48.884;12.598;2022-09-13T09:22:06;12.63;;;5.75;;
64653;SDS011;51065;48.884;12.598;2022-09-13T09:24:38;13.07;;;5.97;;
64653;SDS011;51065;48.884;12.598;2022-09-13T09:27:13;14.63;;;5.82;;
64653;SDS011;51065;48.884;12.598;2022-09-13T09:29:40;10.25;;;5.30;;
64653;SDS011;51065;48.884;12.598;2022-09-13T09:37:45;10.32;;;5.47;;
64653;SDS011;51065;48.884;12.598;2022-09-13T09:40:27;12.85;;;5.60;;
64653;SDS011;51065;48.884;12.598;2022-09-13T09:42:54;11.55;;;5.70;;
64653;SDS011;51065;48.884;12.598;2022-09-13T09:45:30;13.80;;;6.10;;
64653;SDS011;51065;48.884;12.598;2022-09-13T09:47:59;9.70;;;5.28;;
64653;SDS011;51065;48.884;12.598;2022-09-13T09:50:35;9.95;;;5.25;;
64653;SDS011;51065;48.884;12.598;2022-09-13T09:55:34;10.68;;;5.25;;
64653;SDS011;51065;48.884;12.598;2022-09-13T09:58:12;8.63;;;4.90;;
64653;SDS011;51065;48.884;12.598;2022-09-13T10:00:49;12.75;;;5.78;;
64653;SDS011;51065;48.884;12.598;2022-09-13T10:03:16;9.68;;;5.25;;
64653;SDS011;51065;48.884;12.598;2022-09-13T10:05:44;12.13;;;5.90;;
64653;SDS011;51065;48.884;12.598;2022-09-13T10:08:30;12.43;;;5.43;;
64653;SDS011;51065;48.884;12.598;2022-09-13T10:10:58;9.82;;;5.35;;
64653;SDS011;51065;48.884;12.598;2022-09-13T10:13:25;10.95;;;5.57;;
64653;SDS011;51065;48.884;12.598;2022-09-13T10:15:53;9.70;;;4.85;;
64653;SDS011;51065;48.884;12.598;2022-09-13T10:18:28;9.75;;;5.30;;
64653;SDS011;51065;48.884;12.598;2022-09-13T10:21:02;11.15;;;5.45;;
64653;SDS011;51065;48.884;12.598;2022-09-13T10:23:47;9.73;;;5.18;;
64653;SDS011;51065;48.884;12.598;2022-09-13T10:26:20;9.05;;;5.07;;
64653;SDS011;51065;48.884;12.598;2022-09-13T10:31:37;10.70;;;4.60;;
64653;SDS011;51065;48.884;12.598;2022-09-13T10:36:43;11.50;;;5.00;;
64653;SDS011;51065;48.884;12.598;2022-09-13T10:39:29;11.57;;;5.07;;
64653;SDS011;51065;48.884;12.598;2022-09-13T10:47:21;7.20;;;4.28;;
64653;SDS011;51065;48.884;12.598;2022-09-13T10:49:57;8.48;;;4.63;;
64653;SDS011;51065;48.884;12.598;2022-09-13T10:52:37;9.48;;;4.97;;
64653;SDS011;51065;48.884;12.598;2022-09-13T11:00:16;10.43;;;4.90;;
64653;SDS011;51065;48.884;12.598;2022-09-13T11:06:01;8.32;;;4.00;;
64653;SDS011;51065;48.884;12.598;2022-09-13T11:08:45;9.25;;;4.95;;
64653;SDS011;51065;48.884;12.598;2022-09-13T11:23:07;10.57;;;4.75;;
64653;SDS011;51065;48.884;12.598;2022-09-13T11:29:04;10.07;;;3.97;;
64653;SDS011;51065;48.884;12.598;2022-09-13T11:31:56;8.55;;;3.97;;
64653;SDS011;51065;48.884;12.598;2022-09-13T11:34:31;8.43;;;4.22;;
64653;SDS011;51065;48.884;12.598;2022-09-13T11:37:28;9.10;;;4.18;;
64653;SDS011;51065;48.884;12.598;2022-09-13T11:59:42;10.32;;;4.20;;
64653;SDS011;51065;48.884;12.598;2022-09-13T12:05:03;7.50;;;4.05;;
64653;SDS011;51065;48.884;12.598;2022-09-13T12:07:41;9.50;;;3.72;;
64653;SDS011;51065;48.884;12.598;2022-09-13T12:10:21;7.97;;;3.70;;
64653;SDS011;51065;48.884;12.598;2022-09-13T12:12:57;6.97;;;3.55;;
64653;SDS011;51065;48.884;12.598;2022-09-13T12:15:34;8.15;;;4.22;;
64653;SDS011;51065;48.884;12.598;2022-09-13T12:18:03;8.32;;;3.90;;
64653;SDS011;51065;48.884;12.598;2022-09-13T12:20:38;7.90;;;3.80;;
64653;SDS011;51065;48.884;12.598;2022-09-13T12:23:13;8.00;;;3.78;;
64653;SDS011;51065;48.884;12.598;2022-09-13T12:26:04;7.65;;;3.55;;
64653;SDS011;51065;48.884;12.598;2022-09-13T12:28:45;9.95;;;4.07;;
64653;SDS011;51065;48.884;12.598;2022-09-13T12:31:16;8.27;;;3.95;;
64653;SDS011;51065;48.884;12.598;2022-09-13T12:33:45;8.27;;;3.83;;
64653;SDS011;51065;48.884;12.598;2022-09-13T12:36:29;8.65;;;4.18;;
64653;SDS011;51065;48.884;12.598;2022-09-13T12:47:13;11.13;;;3.83;;
64653;SDS011;51065;48.884;12.598;2022-09-13T12:52:44;10.90;;;3.80;;
64653;SDS011;51065;48.884;12.598;2022-09-13T12:55:27;8.65;;;3.55;;
64653;SDS011;51065;48.884;12.598;2022-09-13T12:58:04;7.75;;;3.83;;
64653;SDS011;51065;48.884;12.598;2022-09-13T13:03:33;7.85;;;4.00;;
64653;SDS011;51065;48.884;12.598;2022-09-13T13:06:27;8.00;;;3.20;;
64653;SDS011;51065;48.884;12.598;2022-09-13T13:09:00;6.65;;;3.22;;
64653;SDS011;51065;48.884;12.598;2022-09-13T13:12:05;5.28;;;3.20;;
64653;SDS011;51065;48.884;12.598;2022-09-13T13:23:15;11.15;;;3.67;;
64653;SDS011;51065;48.884;12.598;2022-09-13T13:33:53;12.40;;;3.50;;
64653;SDS011;51065;48.884;12.598;2022-09-13T13:36:30;8.52;;;3.53;;
64653;SDS011;51065;48.884;12.598;2022-09-13T13:39:03;7.55;;;3.58;;
64653;SDS011;51065;48.884;12.598;2022-09-13T13:43:58;9.82;;;3.95;;
64653;SDS011;51065;48.884;12.598;2022-09-13T13:46:25;7.20;;;3.40;;
64653;SDS011;51065;48.884;12.598;2022-09-13T13:48:56;5.55;;;2.70;;
64653;SDS011;51065;48.884;12.598;2022-09-13T14:00:19;7.97;;;3.50;;
64653;SDS011;51065;48.884;12.598;2022-09-13T14:14:43;9.32;;;3.45;;
64653;SDS011;51065;48.884;12.598;2022-09-13T14:20:23;9.75;;;3.35;;
64653;SDS011;51065;48.884;12.598;2022-09-13T14:22:50;5.78;;;3.22;;
64653;SDS011;51065;48.884;12.598;2022-09-13T14:27:44;12.35;;;5.07;;
64653;SDS011;51065;48.884;12.598;2022-09-13T14:30:34;10.13;;;4.18;;
64653;SDS011;51065;48.884;12.598;2022-09-13T14:33:00;11.00;;;4.00;;
64653;SDS011;51065;48.884;12.598;2022-09-13T14:40:36;8.57;;;3.63;;
64653;SDS011;51065;48.884;12.598;2022-09-13T14:43:04;8.73;;;3.80;;
64653;SDS011;51065;48.884;12.598;2022-09-13T14:45:39;7.40;;;3.30;;
64653;SDS011;51065;48.884;12.598;2022-09-13T14:48:07;9.40;;;3.55;;
64653;SDS011;51065;48.884;12.598;2022-09-13T14:50:45;7.15;;;3.30;;
64653;SDS011;51065;48.884;12.598;2022-09-13T14:53:16;6.32;;;3.65;;
64653;SDS011;51065;48.884;12.598;2022-09-13T14:55:47;6.43;;;3.10;;
64653;SDS011;51065;48.884;12.598;2022-09-13T14:58:21;6.03;;;3.25;;
64653;SDS011;51065;48.884;12.598;2022-09-13T15:03:26;13.52;;;3.97;;
64653;SDS011;51065;48.884;12.598;2022-09-13T15:05:53;6.15;;;3.33;;
64653;SDS011;51065;48.884;12.598;2022-09-13T15:10:58;7.35;;;3.50;;
64653;SDS011;51065;48.884;12.598;2022-09-13T15:13:25;10.52;;;3.80;;
64653;SDS011;51065;48.884;12.598;2022-09-13T15:15:51;8.65;;;3.50;;
64653;SDS011;51065;48.884;12.598;2022-09-13T15:23:18;11.50;;;3.78;;
64653;SDS011;51065;48.884;12.598;2022-09-13T15:25:57;7.55;;;3.47;;
64653;SDS011;51065;48.884;12.598;2022-09-13T15:28:56;9.77;;;3.85;;
64653;SDS011;51065;48.884;12.598;2022-09-13T15:31:28;9.10;;;3.90;;
64653;SDS011;51065;48.884;12.598;2022-09-13T15:36:45;7.93;;;3.33;;
64653;SDS011;51065;48.884;12.598;2022-09-13T15:39:15;9.25;;;3.47;;
64653;SDS011;51065;48.884;12.598;2022-09-13T15:41:52;11.18;;;3.80;;
64653;SDS011;51065;48.884;12.598;2022-09-13T15:44:19;6.72;;;3.40;;
64653;SDS011;51065;48.884;12.598;2022-09-13T15:46:46;7.07;;;3.67;;
64653;SDS011;51065;48.884;12.598;2022-09-13T15:49:19;8.23;;;3.60;;
64653;SDS011;51065;48.884;12.598;2022-09-13T15:51:46;9.27;;;3.47;;
64653;SDS011;51065;48.884;12.598;2022-09-13T15:54:18;7.65;;;3.80;;
64653;SDS011;51065;48.884;12.598;2022-09-13T15:56:47;5.78;;;3.28;;
64653;SDS011;51065;48.884;12.598;2022-09-13T15:59:16;7.78;;;3.33;;
64653;SDS011;51065;48.884;12.598;2022-09-13T16:01:44;7.20;;;3.20;;
64653;SDS011;51065;48.884;12.598;2022-09-13T16:04:11;8.95;;;3.63;;
64653;SDS011;51065;48.884;12.598;2022-09-13T16:06:37;10.48;;;4.07;;
64653;SDS011;51065;48.884;12.598;2022-09-13T16:11:58;5.82;;;3.30;;
64653;SDS011;51065;48.884;12.598;2022-09-13T16:14:23;6.97;;;3.80;;
64653;SDS011;51065;48.884;12.598;2022-09-13T16:16:49;5.85;;;3.17;;
64653;SDS011;51065;48.884;12.598;2022-09-13T16:19:16;6.63;;;3.20;;
64653;SDS011;51065;48.884;12.598;2022-09-13T16:21:44;7.90;;;3.30;;
64653;SDS011;51065;48.884;12.598;2022-09-13T16:24:10;7.55;;;3.72;;
64653;SDS011;51065;48.884;12.598;2022-09-13T16:26:35;8.90;;;3.60;;
64653;SDS011;51065;48.884;12.598;2022-09-13T16:29:02;5.70;;;3.17;;
64653;SDS011;51065;48.884;12.598;2022-09-13T16:31:28;7.10;;;3.47;;
64653;SDS011;51065;48.884;12.598;2022-09-13T16:33:53;9.35;;;3.75;;
64653;SDS011;51065;48.884;12.598;2022-09-13T16:36:19;8.18;;;3.50;;
64653;SDS011;51065;48.884;12.598;2022-09-13T16:38:45;6.88;;;3.35;;
64653;SDS011;51065;48.884;12.598;2022-09-13T16:41:11;7.43;;;3.47;;
64653;SDS011;51065;48.884;12.598;2022-09-13T16:43:36;9.50;;;3.38;;
64653;SDS011;51065;48.884;12.598;2022-09-13T16:46:05;5.75;;;3.13;;
64653;SDS011;51065;48.884;12.598;2022-09-13T16:48:33;7.32;;;3.63;;
64653;SDS011;51065;48.884;12.598;2022-09-13T16:51:02;9.63;;;3.63;;
64653;SDS011;51065;48.884;12.598;2022-09-13T16:53:35;9.15;;;3.72;;
64653;SDS011;51065;48.884;12.598;2022-09-13T16:56:10;9.15;;;4.03;;
64653;SDS011;51065;48.884;12.598;2022-09-13T16:58:37;10.25;;;4.03;;
64653;SDS011;51065;48.884;12.598;2022-09-13T17:01:05;10.02;;;3.65;;
64653;SDS011;51065;48.884;12.598;2022-09-13T17:03:32;9.35;;;3.72;;
64653;SDS011;51065;48.884;12.598;2022-09-13T17:06:00;9.73;;;3.58;;
64653;SDS011;51065;48.884;12.598;2022-09-13T17:08:28;7.72;;;3.65;;
64653;SDS011;51065;48.884;12.598;2022-09-13T17:10:54;8.02;;;3.45;;
64653;SDS011;51065;48.884;12.598;2022-09-13T17:13:20;8.60;;;3.60;;
64653;SDS011;51065;48.884;12.598;2022-09-13T17:15:47;8.57;;;3.63;;
64653;SDS011;51065;48.884;12.598;2022-09-13T17:18:12;9.60;;;3.90;;
64653;SDS011;51065;48.884;12.598;2022-09-13T17:20:42;6.78;;;3.38;;
64653;SDS011;51065;48.884;12.598;2022-09-13T17:23:08;7.40;;;3.15;;
64653;SDS011;51065;48.884;12.598;2022-09-13T17:25:34;10.07;;;4.20;;
64653;SDS011;51065;48.884;12.598;2022-09-13T17:28:00;7.47;;;3.60;;
64653;SDS011;51065;48.884;12.598;2022-09-13T17:30:26;6.95;;;3.47;;
64653;SDS011;51065;48.884;12.598;2022-09-13T17:32:51;8.70;;;3.90;;
64653;SDS011;51065;48.884;12.598;2022-09-13T17:35:17;7.38;;;3.80;;
64653;SDS011;51065;48.884;12.598;2022-09-13T17:37:42;6.18;;;3.25;;
64653;SDS011;51065;48.884;12.598;2022-09-13T17:40:08;10.05;;;3.95;;
64653;SDS011;51065;48.884;12.598;2022-09-13T17:42:34;9.35;;;4.03;;
64653;SDS011;51065;48.884;12.598;2022-09-13T17:44:59;8.10;;;3.78;;
64653;SDS011;51065;48.884;12.598;2022-09-13T17:47:25;8.88;;;3.30;;
64653;SDS011;51065;48.884;12.598;2022-09-13T17:49:51;7.35;;;3.78;;
64653;SDS011;51065;48.884;12.598;2022-09-13T17:52:16;11.70;;;3.78;;
64653;SDS011;51065;48.884;12.598;2022-09-13T17:54:42;8.27;;;3.67;;
64653;SDS011;51065;48.884;12.598;2022-09-13T17:57:07;6.95;;;3.25;;
64653;SDS011;51065;48.884;12.598;2022-09-13T17:59:35;7.90;;;3.67;;
64653;SDS011;51065;48.884;12.598;2022-09-13T18:02:01;8.20;;;3.78;;
64653;SDS011;51065;48.884;12.598;2022-09-13T18:04:27;8.13;;;3.35;;
64653;SDS011;51065;48.884;12.598;2022-09-13T18:06:53;6.25;;;3.35;;
64653;SDS011;51065;48.884;12.598;2022-09-13T18:09:19;7.20;;;3.40;;
64653;SDS011;51065;48.884;12.598;2022-09-13T18:11:45;9.43;;;3.95;;
64653;SDS011;51065;48.884;12.598;2022-09-13T18:14:11;9.77;;;4.45;;